createdAt,value
2023-03-22T00:17:23.255Z,7.97
2023-03-22T00:25:37.851Z,7.22
2023-03-22T00:33:45.972Z,6.90
2023-03-22T00:42:24.638Z,6.90
2023-03-22T00:50:39.977Z,7.32
2023-03-22T00:54:33.211Z,6.57
2023-03-22T00:58:33.671Z,6.43
2023-03-22T01:02:29.943Z,7.40
2023-03-22T01:06:22.733Z,6.65
2023-03-22T01:10:16.014Z,7.25
2023-03-22T01:14:34.162Z,6.97
2023-03-22T01:22:19.862Z,7.25
2023-03-22T01:31:01.811Z,6.88
2023-03-22T01:35:03.830Z,6.33
2023-03-22T01:43:18.266Z,6.68
2023-03-22T01:47:12.021Z,6.88
2023-03-22T01:55:33.697Z,6.85
2023-03-22T02:04:12.422Z,7.47
2023-03-22T02:08:05.781Z,8.18
2023-03-22T02:12:08.004Z,7.80
2023-03-22T02:21:01.891Z,7.93
2023-03-22T02:25:13.762Z,6.82
2023-03-22T02:29:31.607Z,6.82
2023-03-22T02:34:02.501Z,7.35
2023-03-22T02:38:28.775Z,9.02
2023-03-22T02:42:26.119Z,7.97
2023-03-22T02:46:45.013Z,8.60
2023-03-22T03:03:48.408Z,7.53
2023-03-22T03:08:13.715Z,7.77
2023-03-22T03:16:26.805Z,7.57
2023-03-22T03:20:32.249Z,7.65
2023-03-22T03:24:42.540Z,7.72
2023-03-22T03:29:00.696Z,6.88
2023-03-22T03:37:11.892Z,6.82
2023-03-22T03:45:00.561Z,7.45
2023-03-22T03:48:55.941Z,8.43
2023-03-22T03:52:48.734Z,7.82
2023-03-22T04:06:00.157Z,7.28
2023-03-22T04:14:21.895Z,8.48
2023-03-22T04:36:20.845Z,7.25
2023-03-22T04:45:00.571Z,8.00
2023-03-22T04:49:27.485Z,7.05
2023-03-22T05:02:28.770Z,7.70
2023-03-22T05:06:47.404Z,8.00
2023-03-22T05:14:41.565Z,7.88
2023-03-22T05:18:34.572Z,7.60
2023-03-22T05:35:26.859Z,6.45
2023-03-22T05:39:21.095Z,7.30
2023-03-22T05:56:56.220Z,6.60
2023-03-22T06:00:51.950Z,7.32
2023-03-22T06:04:47.958Z,7.07
2023-03-22T06:08:40.815Z,7.22
2023-03-22T06:12:34.240Z,8.13
2023-03-22T06:16:27.739Z,7.88
2023-03-22T06:29:13.868Z,8.55
2023-03-22T06:33:06.877Z,8.27
2023-03-22T06:37:00.203Z,7.65
2023-03-22T06:40:55.602Z,8.95
2023-03-22T06:44:48.811Z,8.27
2023-03-22T06:48:42.273Z,8.93
2023-03-22T06:52:42.650Z,8.90
2023-03-22T06:56:36.272Z,7.32
2023-03-22T07:00:30.546Z,9.15
2023-03-22T07:04:24.545Z,9.32
2023-03-22T07:08:17.867Z,9.20
2023-03-22T07:12:11.064Z,8.25
2023-03-22T07:16:04.504Z,8.40
2023-03-22T07:19:57.509Z,8.38
2023-03-22T07:23:50.021Z,7.75
2023-03-22T07:27:42.813Z,8.38
2023-03-22T07:31:36.732Z,8.15
2023-03-22T07:35:30.938Z,8.55
2023-03-22T07:39:29.004Z,8.55
2023-03-22T07:43:22.691Z,9.60
2023-03-22T07:47:15.863Z,9.48
2023-03-22T07:51:08.848Z,8.93
2023-03-22T07:55:01.802Z,10.05
2023-03-22T07:58:54.663Z,9.70
2023-03-22T08:02:47.495Z,9.68
2023-03-22T08:06:42.957Z,9.82
2023-03-22T08:10:36.264Z,8.65
2023-03-22T08:14:36.352Z,10.63
2023-03-22T08:18:29.990Z,9.32
2023-03-22T08:22:29.950Z,11.23
2023-03-22T08:26:23.469Z,8.40
2023-03-22T08:30:16.797Z,8.60
2023-03-22T08:34:09.616Z,8.95
2023-03-22T08:38:02.384Z,8.13
2023-03-22T08:41:55.095Z,9.15
2023-03-22T08:45:48.106Z,9.13
2023-03-22T08:49:41.881Z,9.80
2023-03-22T08:53:34.586Z,11.38
2023-03-22T08:57:27.969Z,10.38
2023-03-22T09:01:21.399Z,10.40
2023-03-22T09:05:14.508Z,8.85
2023-03-22T09:09:07.267Z,8.85
2023-03-22T09:13:00.123Z,7.60
2023-03-22T09:16:52.877Z,8.60
2023-03-22T09:20:46.837Z,8.02
2023-03-22T09:24:39.865Z,7.00
2023-03-22T09:28:32.571Z,7.13
2023-03-22T09:32:26.713Z,7.15
2023-03-22T09:36:20.097Z,6.85
2023-03-22T09:40:13.631Z,7.13
2023-03-22T09:44:16.282Z,7.82
2023-03-22T09:48:31.860Z,8.07
2023-03-22T09:52:25.128Z,8.02
2023-03-22T09:56:23.349Z,8.30
2023-03-22T10:00:28.213Z,8.05
2023-03-22T10:04:48.837Z,8.27
2023-03-22T10:08:56.435Z,7.97
2023-03-22T10:12:55.046Z,7.78
2023-03-22T10:16:48.709Z,7.60
2023-03-22T10:20:58.376Z,8.00
2023-03-22T10:24:54.054Z,8.13
2023-03-22T10:28:54.964Z,8.15
2023-03-22T10:33:05.306Z,7.18
2023-03-22T10:37:01.358Z,7.88
2023-03-22T10:40:57.614Z,7.40
2023-03-22T10:45:03.453Z,6.78
2023-03-22T10:49:01.137Z,7.00
2023-03-22T10:53:21.940Z,7.25
2023-03-22T10:57:14.777Z,6.75
2023-03-22T11:01:24.800Z,7.35
2023-03-22T11:05:29.825Z,6.82
2023-03-22T11:09:24.573Z,6.63
2023-03-22T11:13:22.618Z,7.38
2023-03-22T11:17:20.490Z,7.47
2023-03-22T11:21:16.099Z,7.22
2023-03-22T11:25:22.559Z,6.70
2023-03-22T11:29:19.560Z,7.47
2023-03-22T11:33:19.688Z,12.20
2023-03-22T11:37:18.170Z,6.22
2023-03-22T11:41:26.796Z,8.73
2023-03-22T11:45:42.800Z,7.57
2023-03-22T11:49:39.697Z,6.70
2023-03-22T11:53:37.248Z,6.40
2023-03-22T11:57:32.403Z,6.43
2023-03-22T12:01:34.638Z,6.53
2023-03-22T12:05:30.027Z,6.53
2023-03-22T12:09:39.533Z,6.82
2023-03-22T12:13:53.738Z,6.50
2023-03-22T12:17:58.980Z,5.80
2023-03-22T12:21:52.614Z,5.93
2023-03-22T12:25:53.479Z,6.38
2023-03-22T12:29:59.418Z,6.30
2023-03-22T12:33:55.183Z,6.35
2023-03-22T12:37:52.488Z,6.75
2023-03-22T12:41:49.966Z,6.50
2023-03-22T12:45:53.462Z,7.38
2023-03-22T12:50:02.286Z,6.50
2023-03-22T12:53:57.947Z,6.78
2023-03-22T12:57:54.909Z,6.38
2023-03-22T13:02:18.530Z,6.28
2023-03-22T13:06:45.748Z,6.32
2023-03-22T13:10:42.655Z,5.60
2023-03-22T13:18:49.000Z,5.60
2023-03-22T13:22:44.673Z,5.70
2023-03-22T13:26:39.923Z,5.43
2023-03-22T13:30:36.906Z,5.90
2023-03-22T13:34:46.786Z,5.57
2023-03-22T13:38:43.228Z,6.10
2023-03-22T13:42:39.235Z,5.83
2023-03-22T13:46:38.237Z,5.80
2023-03-22T13:50:32.676Z,5.90
2023-03-22T13:54:38.070Z,5.93
2023-03-22T13:58:36.312Z,5.53
2023-03-22T14:02:36.064Z,6.00
2023-03-22T14:06:34.264Z,6.20
2023-03-22T14:10:40.810Z,6.03
2023-03-22T14:14:42.352Z,5.78
2023-03-22T14:18:38.398Z,6.50
